sensor_id;sensor_type;location;lat;lon;timestamp;pressure;altitude;pressure_sealevel;temperature;humidity
8318;BME280;4196;48.926;8.964;2023-04-07T00:01:29;99084.41;;;5.74;100.00
8318;BME280;4196;48.926;8.964;2023-04-07T00:04:15;99077.59;;;5.76;100.00
8318;BME280;4196;48.926;8.964;2023-04-07T00:07:02;99085.63;;;5.93;100.00
8318;BME280;4196;48.926;8.964;2023-04-07T00:09:49;99087.13;;;5.85;100.00
8318;BME280;4196;48.926;8.964;2023-04-07T00:12:35;99088.03;;;5.87;100.00
8318;BME280;4196;48.926;8.964;2023-04-07T00:15:22;99069.81;;;5.72;100.00
8318;BME280;4196;48.926;8.964;2023-04-07T00:18:08;99084.53;;;5.82;100.00
8318;BME280;4196;48.926;8.964;2023-04-07T00:20:54;99082.78;;;5.81;100.00
8318;BME280;4196;48.926;8.964;2023-04-07T00:23:41;99082.84;;;5.82;100.00
8318;BME280;4196;48.926;8.964;2023-04-07T00:26:28;99071.63;;;5.79;100.00
8318;BME280;4196;48.926;8.964;2023-04-07T00:29:17;99065.13;;;5.99;100.00
8318;BME280;4196;48.926;8.964;2023-04-07T00:32:03;99062.72;;;6.09;100.00
8318;BME280;4196;48.926;8.964;2023-04-07T00:34:49;99059.13;;;5.97;100.00
8318;BME280;4196;48.926;8.964;2023-04-07T00:37:36;99056.56;;;5.97;100.00
8318;BME280;4196;48.926;8.964;2023-04-07T00:40:22;99051.59;;;6.10;100.00
8318;BME280;4196;48.926;8.964;2023-04-07T00:43:09;99032.84;;;6.17;100.00
8318;BME280;4196;48.926;8.964;2023-04-07T00:45:58;99041.47;;;6.19;100.00
8318;BME280;4196;48.926;8.964;2023-04-07T00:48:47;99046.72;;;6.28;100.00
8318;BME280;4196;48.926;8.964;2023-04-07T00:51:33;99047.56;;;6.28;100.00
8318;BME280;4196;48.926;8.964;2023-04-07T00:54:24;99035.41;;;6.17;100.00
8318;BME280;4196;48.926;8.964;2023-04-07T00:57:11;99029.25;;;6.07;100.00
8318;BME280;4196;48.926;8.964;2023-04-07T00:59:57;99029.09;;;5.96;100.00
8318;BME280;4196;48.926;8.964;2023-04-07T01:02:50;99029.00;;;5.90;100.00
8318;BME280;4196;48.926;8.964;2023-04-07T01:05:45;99020.25;;;5.79;100.00
8318;BME280;4196;48.926;8.964;2023-04-07T01:08:56;99015.78;;;5.67;100.00
8318;BME280;4196;48.926;8.964;2023-04-07T01:14:58;99002.78;;;5.60;100.00
8318;BME280;4196;48.926;8.964;2023-04-07T01:18:22;99003.94;;;5.77;100.00
8318;BME280;4196;48.926;8.964;2023-04-07T01:21:13;99001.19;;;5.65;100.00
8318;BME280;4196;48.926;8.964;2023-04-07T01:30:37;98987.66;;;5.78;100.00
8318;BME280;4196;48.926;8.964;2023-04-07T01:33:26;98978.91;;;5.64;100.00
8318;BME280;4196;48.926;8.964;2023-04-07T01:36:32;98981.44;;;5.61;100.00
8318;BME280;4196;48.926;8.964;2023-04-07T01:39:19;98984.28;;;5.79;100.00
8318;BME280;4196;48.926;8.964;2023-04-07T01:42:07;98980.69;;;5.69;100.00
8318;BME280;4196;48.926;8.964;2023-04-07T01:44:55;98980.69;;;5.69;100.00
8318;BME280;4196;48.926;8.964;2023-04-07T01:47:43;98978.19;;;5.72;100.00
8318;BME280;4196;48.926;8.964;2023-04-07T01:50:30;98973.81;;;5.67;100.00
8318;BME280;4196;48.926;8.964;2023-04-07T01:53:17;98956.78;;;5.72;100.00
8318;BME280;4196;48.926;8.964;2023-04-07T01:56:04;98983.44;;;5.80;100.00
8318;BME280;4196;48.926;8.964;2023-04-07T01:58:54;98968.88;;;5.79;100.00
8318;BME280;4196;48.926;8.964;2023-04-07T02:01:42;98972.34;;;5.84;100.00
8318;BME280;4196;48.926;8.964;2023-04-07T02:04:55;98963.22;;;6.01;100.00
8318;BME280;4196;48.926;8.964;2023-04-07T02:07:52;98967.47;;;5.99;100.00
8318;BME280;4196;48.926;8.964;2023-04-07T02:10:45;98963.03;;;5.89;100.00
8318;BME280;4196;48.926;8.964;2023-04-07T02:13:34;98961.41;;;5.94;100.00
8318;BME280;4196;48.926;8.964;2023-04-07T02:16:23;98961.34;;;5.91;100.00
8318;BME280;4196;48.926;8.964;2023-04-07T02:19:13;98954.56;;;5.96;100.00
8318;BME280;4196;48.926;8.964;2023-04-07T02:21:59;98949.28;;;5.89;100.00
8318;BME280;4196;48.926;8.964;2023-04-07T02:24:47;98954.56;;;5.93;100.00
8318;BME280;4196;48.926;8.964;2023-04-07T02:27:33;98949.28;;;5.89;100.00
8318;BME280;4196;48.926;8.964;2023-04-07T02:30:20;98950.34;;;5.98;100.00
8318;BME280;4196;48.926;8.964;2023-04-07T02:33:06;98950.38;;;6.01;100.00
8318;BME280;4196;48.926;8.964;2023-04-07T02:35:53;98942.63;;;5.97;100.00
8318;BME280;4196;48.926;8.964;2023-04-07T02:38:39;98939.06;;;5.92;100.00
8318;BME280;4196;48.926;8.964;2023-04-07T02:41:26;98936.38;;;5.84;100.00
8318;BME280;4196;48.926;8.964;2023-04-07T02:44:12;98944.94;;;5.83;100.00
8318;BME280;4196;48.926;8.964;2023-04-07T02:47:02;98941.47;;;5.81;100.00
8318;BME280;4196;48.926;8.964;2023-04-07T02:49:48;98936.34;;;5.81;100.00
8318;BME280;4196;48.926;8.964;2023-04-07T02:52:35;98932.91;;;5.79;100.00
8318;BME280;4196;48.926;8.964;2023-04-07T02:55:27;98928.56;;;5.75;100.00
8318;BME280;4196;48.926;8.964;2023-04-07T02:58:14;98925.09;;;5.73;100.00
8318;BME280;4196;48.926;8.964;2023-04-07T03:01:03;98924.28;;;5.77;100.00
8318;BME280;4196;48.926;8.964;2023-04-07T03:03:52;98920.88;;;5.78;100.00
8318;BME280;4196;48.926;8.964;2023-04-07T03:06:42;98923.53;;;5.84;100.00
8318;BME280;4196;48.926;8.964;2023-04-07T03:09:32;98922.69;;;5.82;100.00
8318;BME280;4196;48.926;8.964;2023-04-07T03:12:18;98920.13;;;5.85;100.00
8318;BME280;4196;48.926;8.964;2023-04-07T03:15:05;98919.41;;;5.92;100.00
8318;BME280;4196;48.926;8.964;2023-04-07T03:17:54;98916.16;;;6.05;100.00
8318;BME280;4196;48.926;8.964;2023-04-07T03:20:41;98918.56;;;5.93;100.00
8318;BME280;4196;48.926;8.964;2023-04-07T03:23:30;98917.56;;;5.85;100.00
8318;BME280;4196;48.926;8.964;2023-04-07T03:26:17;98915.88;;;5.87;100.00
8318;BME280;4196;48.926;8.964;2023-04-07T03:29:04;98910.88;;;5.93;100.00
8318;BME280;4196;48.926;8.964;2023-04-07T03:31:50;98908.16;;;5.86;100.00
8318;BME280;4196;48.926;8.964;2023-04-07T03:34:41;98908.13;;;5.82;100.00
8318;BME280;4196;48.926;8.964;2023-04-07T03:37:28;98904.69;;;5.84;100.00
8318;BME280;4196;48.926;8.964;2023-04-07T03:40:14;98831.25;;;5.37;100.00
8318;BME280;4196;48.926;8.964;2023-04-07T03:43:01;98900.41;;;5.82;100.00
8318;BME280;4196;48.926;8.964;2023-04-07T03:45:48;98903.78;;;5.80;100.00
8318;BME280;4196;48.926;8.964;2023-04-07T03:48:36;98893.53;;;5.81;100.00
8318;BME280;4196;48.926;8.964;2023-04-07T03:51:25;98890.03;;;5.76;100.00
8318;BME280;4196;48.926;8.964;2023-04-07T03:54:14;98890.84;;;5.71;100.00
8318;BME280;4196;48.926;8.964;2023-04-07T03:57:02;98900.31;;;5.78;100.00
8318;BME280;4196;48.926;8.964;2023-04-07T03:59:53;98900.31;;;5.78;100.00
8318;BME280;4196;48.926;8.964;2023-04-07T04:02:41;98895.06;;;5.69;100.00
8318;BME280;4196;48.926;8.964;2023-04-07T04:05:32;98895.06;;;5.69;100.00
8318;BME280;4196;48.926;8.964;2023-04-07T04:08:19;98893.47;;;5.77;100.00
8318;BME280;4196;48.926;8.964;2023-04-07T04:11:05;98896.78;;;5.70;100.00
8318;BME280;4196;48.926;8.964;2023-04-07T04:14:01;98887.41;;;5.73;100.00
8318;BME280;4196;48.926;8.964;2023-04-07T04:16:48;98889.94;;;5.69;100.00
8318;BME280;4196;48.926;8.964;2023-04-07T04:19:45;98877.03;;;5.66;100.00
8318;BME280;4196;48.926;8.964;2023-04-07T04:22:56;98879.75;;;5.75;100.00
8318;BME280;4196;48.926;8.964;2023-04-07T04:25:42;98884.78;;;5.69;100.00
8318;BME280;4196;48.926;8.964;2023-04-07T04:28:30;98884.78;;;5.67;100.00
8318;BME280;4196;48.926;8.964;2023-04-07T04:31:17;98886.47;;;5.67;100.00
8318;BME280;4196;48.926;8.964;2023-04-07T04:34:04;98867.63;;;5.65;100.00
8318;BME280;4196;48.926;8.964;2023-04-07T04:36:51;98885.69;;;5.71;100.00
8318;BME280;4196;48.926;8.964;2023-04-07T04:39:38;98882.13;;;5.61;100.00
8318;BME280;4196;48.926;8.964;2023-04-07T04:42:25;98881.25;;;5.61;100.00
8318;BME280;4196;48.926;8.964;2023-04-07T04:45:15;98886.44;;;5.64;100.00
8318;BME280;4196;48.926;8.964;2023-04-07T04:48:05;98888.97;;;5.62;100.00
8318;BME280;4196;48.926;8.964;2023-04-07T04:50:51;98897.09;;;5.91;100.00
8318;BME280;4196;48.926;8.964;2023-04-07T04:53:39;98895.97;;;5.74;100.00
8318;BME280;4196;48.926;8.964;2023-04-07T04:56:26;98893.41;;;5.71;100.00
8318;BME280;4196;48.926;8.964;2023-04-07T04:59:13;98902.06;;;5.79;100.00
8318;BME280;4196;48.926;8.964;2023-04-07T05:02:10;98902.09;;;5.80;100.00
8318;BME280;4196;48.926;8.964;2023-04-07T05:04:58;98900.41;;;5.84;100.00
8318;BME280;4196;48.926;8.964;2023-04-07T05:07:47;98897.91;;;5.89;100.00
8318;BME280;4196;48.926;8.964;2023-04-07T05:10:37;98891.69;;;5.73;100.00
8318;BME280;4196;48.926;8.964;2023-04-07T05:13:27;98907.38;;;5.91;100.00
8318;BME280;4196;48.926;8.964;2023-04-07T05:16:18;98830.59;;;5.50;100.00
8318;BME280;4196;48.926;8.964;2023-04-07T05:19:06;98902.19;;;5.88;100.00
8318;BME280;4196;48.926;8.964;2023-04-07T05:21:53;98898.03;;;5.93;100.00
8318;BME280;4196;48.926;8.964;2023-04-07T05:24:41;98904.22;;;6.08;100.00
8318;BME280;4196;48.926;8.964;2023-04-07T05:27:28;98904.22;;;6.08;100.00
8318;BME280;4196;48.926;8.964;2023-04-07T05:30:22;98884.28;;;5.93;100.00
8318;BME280;4196;48.926;8.964;2023-04-07T05:33:08;98898.16;;;6.04;100.00
8318;BME280;4196;48.926;8.964;2023-04-07T05:36:00;98893.69;;;5.92;100.00
8318;BME280;4196;48.926;8.964;2023-04-07T05:38:49;98890.13;;;5.82;100.00
8318;BME280;4196;48.926;8.964;2023-04-07T05:41:37;98886.50;;;5.70;100.00
8318;BME280;4196;48.926;8.964;2023-04-07T05:44:24;98892.34;;;5.58;100.00
8318;BME280;4196;48.926;8.964;2023-04-07T05:47:11;98893.31;;;5.65;100.00
8318;BME280;4196;48.926;8.964;2023-04-07T05:49:59;98898.97;;;5.44;100.00
8318;BME280;4196;48.926;8.964;2023-04-07T05:52:46;98900.47;;;5.29;100.00
8318;BME280;4196;48.926;8.964;2023-04-07T05:55:43;98887.28;;;5.06;100.00
8318;BME280;4196;48.926;8.964;2023-04-07T05:58:38;98910.44;;;5.11;100.00
8318;BME280;4196;48.926;8.964;2023-04-07T06:01:24;98909.63;;;5.14;100.00
8318;BME280;4196;48.926;8.964;2023-04-07T06:04:13;98904.50;;;5.14;100.00
8318;BME280;4196;48.926;8.964;2023-04-07T06:07:01;98909.75;;;5.20;100.00
8318;BME280;4196;48.926;8.964;2023-04-07T06:09:48;98896.06;;;5.21;100.00
8318;BME280;4196;48.926;8.964;2023-04-07T06:12:34;98904.91;;;5.40;100.00
8318;BME280;4196;48.926;8.964;2023-04-07T06:15:22;98876.81;;;5.49;100.00
8318;BME280;4196;48.926;8.964;2023-04-07T06:18:09;98903.78;;;5.80;100.00
8318;BME280;4196;48.926;8.964;2023-04-07T06:20:58;98897.94;;;5.92;100.00
8318;BME280;4196;48.926;8.964;2023-04-07T06:23:44;98902.41;;;6.00;100.00
8318;BME280;4196;48.926;8.964;2023-04-07T06:26:31;98901.75;;;6.18;100.00
8318;BME280;4196;48.926;8.964;2023-04-07T06:29:21;98907.09;;;6.35;100.00
8318;BME280;4196;48.926;8.964;2023-04-07T06:32:07;98917.00;;;6.79;100.00
8318;BME280;4196;48.926;8.964;2023-04-07T06:34:54;98911.94;;;6.85;100.00
8318;BME280;4196;48.926;8.964;2023-04-07T06:37:41;98905.91;;;6.82;100.00
8318;BME280;4196;48.926;8.964;2023-04-07T06:40:28;98915.38;;;6.87;100.00
8318;BME280;4196;48.926;8.964;2023-04-07T06:43:14;98910.41;;;7.04;100.00
8318;BME280;4196;48.926;8.964;2023-04-07T06:46:13;98917.97;;;6.89;100.00
8318;BME280;4196;48.926;8.964;2023-04-07T06:48:59;98907.66;;;6.87;100.00
8318;BME280;4196;48.926;8.964;2023-04-07T06:51:46;98915.41;;;6.92;100.00
8318;BME280;4196;48.926;8.964;2023-04-07T06:54:32;98913.69;;;6.89;100.00
8318;BME280;4196;48.926;8.964;2023-04-07T06:57:19;98899.97;;;6.90;100.00
8318;BME280;4196;48.926;8.964;2023-04-07T07:00:06;98901.03;;;7.12;100.00
8318;BME280;4196;48.926;8.964;2023-04-07T07:02:57;98901.94;;;7.20;100.00
8318;BME280;4196;48.926;8.964;2023-04-07T07:05:44;98901.97;;;7.25;100.00
8318;BME280;4196;48.926;8.964;2023-04-07T07:08:32;98877.16;;;7.36;100.00
8318;BME280;4196;48.926;8.964;2023-04-07T07:11:19;98902.22;;;7.56;100.00
8318;BME280;4196;48.926;8.964;2023-04-07T07:14:05;98892.81;;;7.65;100.00
8318;BME280;4196;48.926;8.964;2023-04-07T07:16:52;98897.41;;;8.15;100.00
8318;BME280;4196;48.926;8.964;2023-04-07T07:19:38;98879.50;;;8.52;100.00
8318;BME280;4196;48.926;8.964;2023-04-07T07:22:25;98902.75;;;8.72;100.00
8318;BME280;4196;48.926;8.964;2023-04-07T07:25:11;98904.44;;;8.49;100.00
8318;BME280;4196;48.926;8.964;2023-04-07T07:27:58;98912.16;;;8.49;100.00
8318;BME280;4196;48.926;8.964;2023-04-07T07:30:44;98904.34;;;8.30;100.00
8318;BME280;4196;48.926;8.964;2023-04-07T07:33:31;98901.81;;;8.38;100.00
8318;BME280;4196;48.926;8.964;2023-04-07T07:36:17;98902.78;;;8.69;100.00
8318;BME280;4196;48.926;8.964;2023-04-07T07:39:04;98901.84;;;8.45;100.00
8318;BME280;4196;48.926;8.964;2023-04-07T07:41:51;98913.91;;;8.54;100.00
8318;BME280;4196;48.926;8.964;2023-04-07T07:44:37;98907.00;;;8.49;100.00
8318;BME280;4196;48.926;8.964;2023-04-07T07:47:24;98890.56;;;8.28;100.00
8318;BME280;4196;48.926;8.964;2023-04-07T07:50:11;98910.47;;;8.57;100.00
8318;BME280;4196;48.926;8.964;2023-04-07T07:52:57;98902.78;;;8.75;100.00
8318;BME280;4196;48.926;8.964;2023-04-07T07:55:45;98907.09;;;8.85;98.17
8318;BME280;4196;48.926;8.964;2023-04-07T07:58:32;98899.31;;;8.76;97.75
8318;BME280;4196;48.926;8.964;2023-04-07T08:01:18;98895.03;;;8.72;99.68
8318;BME280;4196;48.926;8.964;2023-04-07T08:04:04;98904.50;;;8.82;100.00
8318;BME280;4196;48.926;8.964;2023-04-07T08:06:51;98901.97;;;9.07;97.59
8318;BME280;4196;48.926;8.964;2023-04-07T08:09:38;98902.84;;;9.18;95.71
8318;BME280;4196;48.926;8.964;2023-04-07T08:12:24;98896.81;;;9.36;95.99
8318;BME280;4196;48.926;8.964;2023-04-07T08:15:11;98896.78;;;9.31;93.19
8318;BME280;4196;48.926;8.964;2023-04-07T08:17:57;98894.22;;;9.47;93.29
8318;BME280;4196;48.926;8.964;2023-04-07T08:20:45;98903.69;;;9.55;93.89
8318;BME280;4196;48.926;8.964;2023-04-07T08:23:32;98903.69;;;9.72;91.00
8318;BME280;4196;48.926;8.964;2023-04-07T08:26:18;98897.63;;;9.61;90.84
8318;BME280;4196;48.926;8.964;2023-04-07T08:29:04;98901.94;;;9.70;93.54
8318;BME280;4196;48.926;8.964;2023-04-07T08:31:51;98914.81;;;9.89;93.93
8318;BME280;4196;48.926;8.964;2023-04-07T08:34:38;98908.75;;;10.09;91.55
8318;BME280;4196;48.926;8.964;2023-04-07T08:37:24;98910.44;;;10.21;87.88
8318;BME280;4196;48.926;8.964;2023-04-07T08:40:11;98912.13;;;10.31;87.52
8318;BME280;4196;48.926;8.964;2023-04-07T08:42:59;98913.81;;;10.41;89.24
8318;BME280;4196;48.926;8.964;2023-04-07T08:45:46;98910.38;;;10.37;84.62
8318;BME280;4196;48.926;8.964;2023-04-07T08:48:36;98910.28;;;10.62;88.17
8318;BME280;4196;48.926;8.964;2023-04-07T08:51:31;98916.91;;;11.07;87.39
8318;BME280;4196;48.926;8.964;2023-04-07T08:54:18;98910.53;;;11.50;84.05
8318;BME280;4196;48.926;8.964;2023-04-07T08:57:07;98911.16;;;11.73;80.52
8318;BME280;4196;48.926;8.964;2023-04-07T08:59:53;98906.66;;;11.97;80.42
8318;BME280;4196;48.926;8.964;2023-04-07T09:02:41;98918.19;;;12.44;74.12
8318;BME280;4196;48.926;8.964;2023-04-07T09:05:33;98912.88;;;12.56;74.80
8318;BME280;4196;48.926;8.964;2023-04-07T09:08:20;98911.66;;;12.80;74.73
8318;BME280;4196;48.926;8.964;2023-04-07T09:11:06;98909.09;;;12.77;72.96
8318;BME280;4196;48.926;8.964;2023-04-07T09:13:54;98908.09;;;12.87;73.33
8318;BME280;4196;48.926;8.964;2023-04-07T09:16:41;98900.03;;;13.07;71.87
8318;BME280;4196;48.926;8.964;2023-04-07T09:19:27;98909.63;;;13.58;72.92
8318;BME280;4196;48.926;8.964;2023-04-07T09:22:33;98907.75;;;14.12;71.98
8318;BME280;4196;48.926;8.964;2023-04-07T09:25:22;98901.44;;;14.25;69.55
8318;BME280;4196;48.926;8.964;2023-04-07T09:28:09;98899.75;;;13.76;69.28
8318;BME280;4196;48.926;8.964;2023-04-07T09:30:56;98917.88;;;13.83;67.04
8318;BME280;4196;48.926;8.964;2023-04-07T09:33:42;98908.66;;;13.09;66.27
8318;BME280;4196;48.926;8.964;2023-04-07T09:36:40;98908.75;;;12.41;67.58
8318;BME280;4196;48.926;8.964;2023-04-07T09:39:27;98901.78;;;12.43;67.17
8318;BME280;4196;48.926;8.964;2023-04-07T09:42:16;98911.84;;;12.68;67.32
8318;BME280;4196;48.926;8.964;2023-04-07T09:45:02;98892.44;;;12.92;66.91
8318;BME280;4196;48.926;8.964;2023-04-07T09:47:49;98910.06;;;13.32;66.39
8318;BME280;4196;48.926;8.964;2023-04-07T09:50:39;98906.22;;;13.56;67.16
8318;BME280;4196;48.926;8.964;2023-04-07T09:53:44;98887.34;;;13.43;61.63
8318;BME280;4196;48.926;8.964;2023-04-07T09:56:32;98903.75;;;13.46;59.75
8318;BME280;4196;48.926;8.964;2023-04-07T09:59:19;98897.97;;;13.29;61.50
8318;BME280;4196;48.926;8.964;2023-04-07T10:02:06;98909.16;;;13.84;60.15
8318;BME280;4196;48.926;8.964;2023-04-07T10:04:53;98914.66;;;14.15;59.02
8318;BME280;4196;48.926;8.964;2023-04-07T10:07:40;98906.16;;;14.48;56.82
8318;BME280;4196;48.926;8.964;2023-04-07T10:10:29;98910.34;;;14.57;56.87
8318;BME280;4196;48.926;8.964;2023-04-07T10:13:16;98913.19;;;14.45;57.93
8318;BME280;4196;48.926;8.964;2023-04-07T10:16:04;98914.81;;;14.50;58.49
8318;BME280;4196;48.926;8.964;2023-04-07T10:18:51;98912.06;;;14.13;60.59
8318;BME280;4196;48.926;8.964;2023-04-07T10:21:42;98907.00;;;14.07;59.68
8318;BME280;4196;48.926;8.964;2023-04-07T10:27:34;98909.00;;;13.45;61.98
8318;BME280;4196;48.926;8.964;2023-04-07T10:30:27;98920.00;;;13.03;62.68
8318;BME280;4196;48.926;8.964;2023-04-07T10:33:14;98890.59;;;13.00;62.75
8318;BME280;4196;48.926;8.964;2023-04-07T10:36:05;98912.25;;;12.99;63.10
8318;BME280;4196;48.926;8.964;2023-04-07T10:41:54;98918.19;;;12.44;65.54
8318;BME280;4196;48.926;8.964;2023-04-07T10:47:27;98925.66;;;12.00;68.47
8318;BME280;4196;48.926;8.964;2023-04-07T10:50:21;98924.16;;;11.70;73.06
8318;BME280;4196;48.926;8.964;2023-04-07T10:53:10;98922.13;;;11.03;79.36
8318;BME280;4196;48.926;8.964;2023-04-07T10:55:57;98931.06;;;10.47;83.52
8318;BME280;4196;48.926;8.964;2023-04-07T10:59:15;98932.03;;;10.09;86.91
8318;BME280;4196;48.926;8.964;2023-04-07T11:05:19;98923.47;;;9.73;99.88
8318;BME280;4196;48.926;8.964;2023-04-07T11:08:06;98930.38;;;9.83;100.00
8318;BME280;4196;48.926;8.964;2023-04-07T11:10:53;98921.69;;;9.97;100.00
8318;BME280;4196;48.926;8.964;2023-04-07T11:13:43;98937.16;;;10.21;95.82
8318;BME280;4196;48.926;8.964;2023-04-07T11:16:42;98932.75;;;10.52;97.93
8318;BME280;4196;48.926;8.964;2023-04-07T11:19:29;98922.09;;;11.07;90.41
8318;BME280;4196;48.926;8.964;2023-04-07T11:22:17;98924.69;;;11.09;85.27
8318;BME280;4196;48.926;8.964;2023-04-07T11:25:19;98926.25;;;11.28;86.22
8318;BME280;4196;48.926;8.964;2023-04-07T11:28:09;98924.03;;;11.85;85.79
8318;BME280;4196;48.926;8.964;2023-04-07T11:30:55;98925.44;;;12.17;84.16
8318;BME280;4196;48.926;8.964;2023-04-07T11:33:51;98914.88;;;12.32;77.79
8318;BME280;4196;48.926;8.964;2023-04-07T11:36:40;98911.47;;;12.30;74.38
8318;BME280;4196;48.926;8.964;2023-04-07T11:39:27;98919.97;;;12.42;74.05
8318;BME280;4196;48.926;8.964;2023-04-07T11:42:30;98919.44;;;12.14;74.98
8318;BME280;4196;48.926;8.964;2023-04-07T11:45:17;98921.72;;;12.40;75.16
8318;BME280;4196;48.926;8.964;2023-04-07T11:48:24;98918.91;;;12.58;74.33
8318;BME280;4196;48.926;8.964;2023-04-07T11:51:19;98928.53;;;12.50;75.13
8318;BME280;4196;48.926;8.964;2023-04-07T11:54:06;98924.53;;;12.23;78.44
8318;BME280;4196;48.926;8.964;2023-04-07T11:56:52;98924.81;;;11.95;80.99
8318;BME280;4196;48.926;8.964;2023-04-07T11:59:40;98932.16;;;11.49;81.07
8318;BME280;4196;48.926;8.964;2023-04-07T12:02:32;98938.44;;;11.17;83.63
8318;BME280;4196;48.926;8.964;2023-04-07T12:05:18;98937.50;;;11.30;84.65
8318;BME280;4196;48.926;8.964;2023-04-07T12:08:05;98921.13;;;11.19;85.92
8318;BME280;4196;48.926;8.964;2023-04-07T12:11:02;98952.22;;;11.22;86.63
8318;BME280;4196;48.926;8.964;2023-04-07T12:13:49;98950.47;;;11.27;87.20
8318;BME280;4196;48.926;8.964;2023-04-07T12:16:39;98940.06;;;11.29;89.29
8318;BME280;4196;48.926;8.964;2023-04-07T12:19:27;98953.97;;;11.16;87.71
8318;BME280;4196;48.926;8.964;2023-04-07T12:22:14;98946.91;;;11.41;87.86
8318;BME280;4196;48.926;8.964;2023-04-07T12:25:00;98949.47;;;11.44;86.30
8318;BME280;4196;48.926;8.964;2023-04-07T12:27:47;98947.75;;;11.41;84.76
8318;BME280;4196;48.926;8.964;2023-04-07T12:30:33;98953.44;;;11.81;78.78
8318;BME280;4196;48.926;8.964;2023-04-07T12:33:19;98958.59;;;11.91;79.63
8318;BME280;4196;48.926;8.964;2023-04-07T12:36:06;98962.31;;;11.59;81.95
8318;BME280;4196;48.926;8.964;2023-04-07T12:38:53;98959.66;;;11.65;83.93
8318;BME280;4196;48.926;8.964;2023-04-07T12:41:40;98954.69;;;11.42;85.78
8318;BME280;4196;48.926;8.964;2023-04-07T12:44:27;98961.44;;;11.60;85.18
8318;BME280;4196;48.926;8.964;2023-04-07T12:47:13;98952.06;;;11.44;82.66
8318;BME280;4196;48.926;8.964;2023-04-07T12:50:03;98957.22;;;11.50;82.33
8318;BME280;4196;48.926;8.964;2023-04-07T12:52:50;98958.09;;;11.47;82.85
8318;BME280;4196;48.926;8.964;2023-04-07T12:55:37;98958.91;;;11.54;82.45
8318;BME280;4196;48.926;8.964;2023-04-07T12:58:24;98963.13;;;11.66;83.97
8318;BME280;4196;48.926;8.964;2023-04-07T13:01:11;98957.16;;;11.54;83.69
8318;BME280;4196;48.926;8.964;2023-04-07T13:03:58;98956.94;;;11.83;83.76
8318;BME280;4196;48.926;8.964;2023-04-07T13:06:44;98955.19;;;11.87;82.43
8318;BME280;4196;48.926;8.964;2023-04-07T13:09:30;98944.66;;;12.01;81.51
8318;BME280;4196;48.926;8.964;2023-04-07T13:12:17;98959.97;;;12.25;79.69
8318;BME280;4196;48.926;8.964;2023-04-07T13:15:04;98950.59;;;12.15;81.27
8318;BME280;4196;48.926;8.964;2023-04-07T13:17:51;98955.22;;;12.61;78.80
8318;BME280;4196;48.926;8.964;2023-04-07T13:20:38;98956.03;;;12.65;78.14
8318;BME280;4196;48.926;8.964;2023-04-07T13:23:24;98954.97;;;12.79;77.05
8318;BME280;4196;48.926;8.964;2023-04-07T13:26:11;98961.69;;;12.97;74.84
8318;BME280;4196;48.926;8.964;2023-04-07T13:28:58;98950.47;;;12.92;74.02
8318;BME280;4196;48.926;8.964;2023-04-07T13:31:45;98952.06;;;13.04;75.88
8318;BME280;4196;48.926;8.964;2023-04-07T13:34:32;98945.72;;;13.22;76.85
8318;BME280;4196;48.926;8.964;2023-04-07T13:37:19;98947.44;;;13.21;76.02
8318;BME280;4196;48.926;8.964;2023-04-07T13:40:06;98943.13;;;13.20;77.31
8318;BME280;4196;48.926;8.964;2023-04-07T13:42:53;98958.13;;;13.04;78.69
8318;BME280;4196;48.926;8.964;2023-04-07T13:45:39;98954.81;;;12.93;81.84
8318;BME280;4196;48.926;8.964;2023-04-07T13:48:26;98951.50;;;12.82;81.44
8318;BME280;4196;48.926;8.964;2023-04-07T13:51:13;98960.97;;;12.85;81.70
8318;BME280;4196;48.926;8.964;2023-04-07T13:53:59;98958.38;;;12.85;81.81
8318;BME280;4196;48.926;8.964;2023-04-07T13:56:46;98959.00;;;13.02;79.73
8318;BME280;4196;48.926;8.964;2023-04-07T13:59:34;98956.44;;;12.99;80.96
8318;BME280;4196;48.926;8.964;2023-04-07T14:02:20;98948.34;;;13.23;79.72
8318;BME280;4196;48.926;8.964;2023-04-07T14:05:07;98953.53;;;13.22;79.92
8318;BME280;4196;48.926;8.964;2023-04-07T14:07:54;98958.97;;;13.05;79.24
8318;BME280;4196;48.926;8.964;2023-04-07T14:10:41;98948.97;;;13.36;76.99
8318;BME280;4196;48.926;8.964;2023-04-07T14:13:29;98946.19;;;13.50;73.04
8318;BME280;4196;48.926;8.964;2023-04-07T14:16:16;98944.22;;;13.64;71.72
8318;BME280;4196;48.926;8.964;2023-04-07T14:19:03;98929.69;;;13.51;72.16
8318;BME280;4196;48.926;8.964;2023-04-07T14:21:50;98945.78;;;13.74;72.36
8318;BME280;4196;48.926;8.964;2023-04-07T14:24:36;98939.31;;;13.46;73.57
8318;BME280;4196;48.926;8.964;2023-04-07T14:27:23;98936.09;;;13.28;71.17
8318;BME280;4196;48.926;8.964;2023-04-07T14:30:10;98957.97;;;13.69;71.67
8318;BME280;4196;48.926;8.964;2023-04-07T14:32:56;98949.53;;;14.06;67.45
8318;BME280;4196;48.926;8.964;2023-04-07T14:35:43;98953.53;;;14.25;72.34
8318;BME280;4196;48.926;8.964;2023-04-07T14:38:29;98946.72;;;14.18;72.29
8318;BME280;4196;48.926;8.964;2023-04-07T14:41:18;98945.97;;;14.12;71.39
8318;BME280;4196;48.926;8.964;2023-04-07T14:44:05;98947.25;;;13.88;71.42
8318;BME280;4196;48.926;8.964;2023-04-07T14:46:52;98949.16;;;13.80;72.39
8318;BME280;4196;48.926;8.964;2023-04-07T14:49:38;98944.16;;;13.67;73.01
8318;BME280;4196;48.926;8.964;2023-04-07T14:52:24;98941.13;;;13.39;72.85
8318;BME280;4196;48.926;8.964;2023-04-07T14:55:11;98955.25;;;13.21;74.07
8318;BME280;4196;48.926;8.964;2023-04-07T14:57:57;98958.13;;;13.04;74.33
8318;BME280;4196;48.926;8.964;2023-04-07T15:00:45;98960.94;;;12.88;75.18
8318;BME280;4196;48.926;8.964;2023-04-07T15:03:31;98956.75;;;12.76;76.65
8318;BME280;4196;48.926;8.964;2023-04-07T15:06:19;98964.50;;;12.80;75.36
8318;BME280;4196;48.926;8.964;2023-04-07T15:09:05;98947.88;;;12.92;75.66
8318;BME280;4196;48.926;8.964;2023-04-07T15:11:52;98952.41;;;13.40;73.72
8318;BME280;4196;48.926;8.964;2023-04-07T15:14:38;98960.50;;;13.75;71.54
8318;BME280;4196;48.926;8.964;2023-04-07T15:17:25;98963.44;;;14.07;69.84
8318;BME280;4196;48.926;8.964;2023-04-07T15:20:28;98954.19;;;14.35;68.22
8318;BME280;4196;48.926;8.964;2023-04-07T15:23:14;98964.44;;;14.43;67.51
8318;BME280;4196;48.926;8.964;2023-04-07T15:26:01;98957.56;;;14.40;67.87
8318;BME280;4196;48.926;8.964;2023-04-07T15:28:48;98960.34;;;13.83;67.66
8318;BME280;4196;48.926;8.964;2023-04-07T15:31:34;98953.28;;;13.39;68.74
8318;BME280;4196;48.926;8.964;2023-04-07T15:34:21;98964.38;;;12.90;70.53
8318;BME280;4196;48.926;8.964;2023-04-07T15:37:08;98964.69;;;12.65;72.26
8318;BME280;4196;48.926;8.964;2023-04-07T15:39:54;98963.34;;;12.33;66.16